Dades meteomassalio
Diari Summary for Gener 16, 2017 Units:  Metric    English   Both
« Previous Day
Next Day »
Diari Semanal Mensual Anual Personalitzat
  Maxima: Minima: Mijana:
Temperatura: 13.4 °C 6.9 °C 9.6 °C
Rosada: 6.6 °C 3.8 °C 5 °C
Humitat: 81 % 60 % 73 %
Velocitat del vent: 68.5 km/h 18.5 km/h 45.1 km/h
Racha vent: 68.5 km/h - -
Vent:- - NW
Pressio: 1024.6 hPa 1016.5 hPa -
Pluja: 0.0 mm    
Historical Graphs
 
 
Tabular Data for Gener 16, 2017
Time Temperature Dew Point Pressure Wind Wind Speed Wind Gust Humidity Rainfall Rate (Hourly) solar Conditions
00:01 6.9 °C 3.9 °C 1024.6 hPa NW 33.3 km/h 33.3 km/h 81 % 0.0 mm 0.0 W/m2 CLR
00:06 7.0 °C 3.8 °C 1024.6 hPa NW 25.7 km/h 25.7 km/h 80 % 0.0 mm 0.0 W/m2 CLR
00:11 6.9 °C 3.9 °C 1024.6 hPa NW 42.6 km/h 42.6 km/h 81 % 0.0 mm 0.0 W/m2 CLR
00:16 6.9 °C 3.9 °C 1024.3 hPa NW 35.2 km/h 35.2 km/h 81 % 0.0 mm 0.0 W/m2 CLR
00:21 6.9 °C 3.9 °C 1024.6 hPa NW 33.3 km/h 33.3 km/h 81 % 0.0 mm 0.0 W/m2 CLR
00:26 6.9 °C 3.8 °C 1024.3 hPa NW 29.0 km/h 29.0 km/h 81 % 0.0 mm 0.0 W/m2 CLR
00:31 6.9 °C 3.9 °C 1024.3 hPa NW 44.4 km/h 44.4 km/h 81 % 0.0 mm 0.0 W/m2 CLR
00:36 7.0 °C 3.9 °C 1023.9 hPa NW 33.3 km/h 33.3 km/h 81 % 0.0 mm 0.0 W/m2 CLR
00:41 7.1 °C 4.0 °C 1023.9 hPa NW 42.6 km/h 42.6 km/h 81 % 0.0 mm 0.0 W/m2 CLR
00:46 7.1 °C 4.1 °C 1023.9 hPa NW 40.7 km/h 40.7 km/h 81 % 0.0 mm 0.0 W/m2 CLR
00:51 7.1 °C 4.1 °C 1023.9 hPa NW 33.3 km/h 33.3 km/h 81 % 0.0 mm 0.0 W/m2 CLR
00:57 7.2 °C 4.1 °C 1023.9 hPa NW 29.6 km/h 30.7 km/h 81 % 0.0 mm 0.0 W/m2 CLR
01:02 7.2 °C 4.2 °C 1023.9 hPa NW 33.3 km/h 33.3 km/h 81 % 0.0 mm 0.0 W/m2 CLR
01:07 7.2 °C 4.1 °C 1023.9 hPa NW 33.8 km/h 33.8 km/h 81 % 0.0 mm 0.0 W/m2 CLR
01:12 7.2 °C 4.1 °C 1023.6 hPa NW 38.9 km/h 38.9 km/h 81 % 0.0 mm 0.0 W/m2 CLR
01:17 7.2 °C 4.0 °C 1023.6 hPa NW 38.9 km/h 38.9 km/h 80 % 0.0 mm 0.0 W/m2 CLR
01:22 7.2 °C 4.0 °C 1023.6 hPa NW 35.2 km/h 35.2 km/h 80 % 0.0 mm 0.0 W/m2 CLR
01:27 7.3 °C 4.2 °C 1023.6 hPa WNW 48.1 km/h 48.1 km/h 81 % 0.0 mm 0.0 W/m2 CLR
01:32 7.3 °C 4.2 °C 1023.6 hPa NW 42.6 km/h 42.6 km/h 81 % 0.0 mm 0.0 W/m2 CLR
01:37 7.3 °C 4.2 °C 1023.6 hPa NW 37.0 km/h 37.0 km/h 81 % 0.0 mm 0.0 W/m2 CLR
01:42 7.2 °C 4.2 °C 1023.6 hPa NW 29.6 km/h 29.6 km/h 81 % 0.0 mm 0.0 W/m2 CLR
01:47 7.2 °C 4.2 °C 1023.6 hPa NW 35.2 km/h 35.2 km/h 81 % 0.0 mm 0.0 W/m2 CLR
01:52 7.3 °C 4.2 °C 1023.2 hPa WNW 37.0 km/h 37.0 km/h 81 % 0.0 mm 0.0 W/m2 CLR
01:57 7.3 °C 4.2 °C 1023.2 hPa NW 33.3 km/h 33.3 km/h 81 % 0.0 mm 0.0 W/m2 CLR
02:02 7.3 °C 4.2 °C 1023.2 hPa NW 25.9 km/h 25.9 km/h 81 % 0.0 mm 0.0 W/m2 CLR
02:07 7.3 °C 4.2 °C 1023.2 hPa WNW 38.9 km/h 38.9 km/h 81 % 0.0 mm 0.0 W/m2 CLR
02:12 7.3 °C 4.1 °C 1023.2 hPa WNW 18.5 km/h 18.5 km/h 80 % 0.0 mm 0.0 W/m2 CLR
02:17 7.2 °C 4.2 °C 1023.2 hPa NW 25.9 km/h 25.9 km/h 81 % 0.0 mm 0.0 W/m2 CLR
02:22 7.3 °C 4.1 °C 1023.2 hPa NW 37.0 km/h 37.0 km/h 80 % 0.0 mm 0.0 W/m2 CLR
02:27 7.3 °C 4.1 °C 1022.9 hPa NW 31.5 km/h 31.5 km/h 80 % 0.0 mm 0.0 W/m2 CLR
02:32 7.3 °C 4.1 °C 1022.9 hPa NW 31.5 km/h 31.5 km/h 80 % 0.0 mm 0.0 W/m2 CLR
02:37 7.4 °C 4.2 °C 1022.6 hPa NW 40.7 km/h 40.7 km/h 80 % 0.0 mm 0.0 W/m2 CLR
02:42 7.4 °C 4.0 °C 1022.6 hPa NW 35.2 km/h 35.2 km/h 79 % 0.0 mm 0.0 W/m2 CLR
02:47 7.3 °C 3.9 °C 1022.6 hPa NW 42.6 km/h 42.6 km/h 79 % 0.0 mm 0.0 W/m2 CLR
02:52 7.5 °C 4.1 °C 1022.6 hPa NW 42.6 km/h 42.6 km/h 79 % 0.0 mm 0.0 W/m2 CLR
02:57 7.5 °C 4.1 °C 1022.6 hPa NW 44.4 km/h 44.4 km/h 79 % 0.0 mm 0.0 W/m2 CLR
03:02 7.6 °C 4.2 °C 1022.6 hPa NW 37.0 km/h 37.0 km/h 79 % 0.0 mm 0.0 W/m2 CLR
03:07 7.5 °C 4.1 °C 1022.6 hPa NW 33.3 km/h 33.3 km/h 79 % 0.0 mm 0.0 W/m2 CLR
03:12 7.6 °C 4.2 °C 1022.6 hPa NW 33.3 km/h 33.3 km/h 79 % 0.0 mm 0.0 W/m2 CLR
03:17 7.6 °C 4.2 °C 1022.6 hPa NW 35.4 km/h 35.4 km/h 79 % 0.0 mm 0.0 W/m2 CLR
03:22 7.7 °C 4.3 °C 1022.2 hPa NW 37.0 km/h 37.0 km/h 79 % 0.0 mm 0.0 W/m2 CLR
03:27 7.8 °C 4.2 °C 1022.2 hPa WNW 37.0 km/h 37.0 km/h 78 % 0.0 mm 0.0 W/m2 CLR
03:32 7.8 °C 4.2 °C 1022.2 hPa NW 38.9 km/h 38.9 km/h 78 % 0.0 mm 0.0 W/m2 CLR
03:37 7.8 °C 4.2 °C 1022.2 hPa NW 31.5 km/h 31.5 km/h 78 % 0.0 mm 0.0 W/m2 CLR
03:42 7.8 °C 4.2 °C 1022.2 hPa NW 37.0 km/h 37.0 km/h 78 % 0.0 mm 0.0 W/m2 CLR
03:47 7.8 °C 4.4 °C 1022.2 hPa NW 33.8 km/h 33.8 km/h 79 % 0.0 mm 0.0 W/m2 CLR
03:52 7.8 °C 4.2 °C 1022.2 hPa NW 31.5 km/h 31.5 km/h 78 % 0.0 mm 0.0 W/m2 CLR
03:57 7.7 °C 4.3 °C 1022.2 hPa NW 33.3 km/h 33.3 km/h 79 % 0.0 mm 0.0 W/m2 CLR
04:02 7.8 °C 4.4 °C 1021.9 hPa NW 30.6 km/h 30.6 km/h 79 % 0.0 mm 0.0 W/m2 CLR
04:07 7.8 °C 4.2 °C 1021.9 hPa NW 35.2 km/h 35.2 km/h 78 % 0.0 mm 0.0 W/m2 CLR
04:12 7.8 °C 4.4 °C 1021.9 hPa NW 31.5 km/h 31.5 km/h 79 % 0.0 mm 0.0 W/m2 CLR
04:17 7.8 °C 4.4 °C 1021.9 hPa NW 38.9 km/h 38.9 km/h 79 % 0.0 mm 0.0 W/m2 CLR
04:22 7.7 °C 4.3 °C 1021.9 hPa WNW 37.0 km/h 37.0 km/h 79 % 0.0 mm 0.0 W/m2 CLR
04:27 7.8 °C 4.4 °C 1021.9 hPa WNW 37.0 km/h 37.0 km/h 79 % 0.0 mm 0.0 W/m2 CLR
04:32 7.8 °C 4.4 °C 1021.9 hPa NW 46.3 km/h 46.3 km/h 79 % 0.0 mm 0.0 W/m2 CLR
04:37 7.8 °C 4.4 °C 1021.6 hPa NW 27.8 km/h 27.8 km/h 79 % 0.0 mm 0.0 W/m2 CLR
04:42 7.8 °C 4.4 °C 1021.6 hPa NW 31.5 km/h 31.5 km/h 79 % 0.0 mm 0.0 W/m2 CLR
04:47 7.7 °C 4.3 °C 1021.6 hPa NW 37.0 km/h 37.0 km/h 79 % 0.0 mm 0.0 W/m2 CLR
04:52 7.8 °C 4.4 °C 1021.6 hPa NW 44.4 km/h 44.4 km/h 79 % 0.0 mm 0.0 W/m2 CLR
04:57 7.8 °C 4.4 °C 1021.6 hPa NW 35.2 km/h 35.2 km/h 79 % 0.0 mm 0.0 W/m2 CLR
05:02 7.8 °C 4.4 °C 1021.6 hPa NW 44.4 km/h 44.4 km/h 79 % 0.0 mm 0.0 W/m2 CLR
05:07 7.8 °C 4.6 °C 1021.2 hPa NW 31.5 km/h 31.5 km/h 80 % 0.0 mm 0.0 W/m2 CLR
05:12 7.8 °C 4.6 °C 1021.6 hPa NW 31.5 km/h 31.5 km/h 80 % 0.0 mm 0.0 W/m2 CLR
05:17 7.8 °C 4.6 °C 1021.6 hPa NW 42.6 km/h 42.6 km/h 80 % 0.0 mm 0.0 W/m2 CLR
05:22 7.9 °C 4.7 °C 1021.2 hPa NW 50.0 km/h 50.0 km/h 80 % 0.0 mm 0.0 W/m2 CLR
05:27 8.0 °C 4.6 °C 1021.2 hPa NW 37.0 km/h 37.0 km/h 79 % 0.0 mm 0.0 W/m2 CLR
05:32 8.0 °C 4.6 °C 1021.2 hPa NW 38.9 km/h 38.9 km/h 79 % 0.0 mm 0.0 W/m2 CLR
05:37 8.1 °C 4.6 °C 1021.2 hPa NW 38.6 km/h 38.6 km/h 79 % 0.0 mm 0.0 W/m2 CLR
05:42 8.1 °C 4.7 °C 1021.2 hPa NW 42.6 km/h 42.6 km/h 79 % 0.0 mm 0.0 W/m2 CLR
05:47 8.1 °C 4.7 °C 1020.9 hPa NW 37.0 km/h 37.0 km/h 79 % 0.0 mm 0.0 W/m2 CLR
05:52 8.1 °C 4.5 °C 1020.9 hPa NW 42.6 km/h 42.6 km/h 78 % 0.0 mm 0.0 W/m2 CLR
05:57 8.2 °C 4.6 °C 1020.9 hPa NW 55.5 km/h 55.5 km/h 78 % 0.0 mm 0.0 W/m2 CLR
06:02 8.2 °C 4.4 °C 1020.9 hPa NW 37.0 km/h 37.0 km/h 77 % 0.0 mm 0.0 W/m2 CLR
06:07 8.2 °C 4.4 °C 1020.5 hPa NW 38.9 km/h 38.9 km/h 77 % 0.0 mm 0.0 W/m2 CLR
06:12 8.2 °C 4.4 °C 1020.5 hPa NW 40.7 km/h 40.7 km/h 77 % 0.0 mm 0.0 W/m2 CLR
06:17 8.2 °C 4.4 °C 1020.9 hPa NW 51.8 km/h 51.8 km/h 77 % 0.0 mm 0.0 W/m2 CLR
06:22 8.3 °C 4.5 °C 1020.5 hPa NW 44.4 km/h 44.4 km/h 77 % 0.0 mm 0.0 W/m2 CLR
06:27 8.3 °C 4.5 °C 1020.5 hPa NW 51.8 km/h 51.8 km/h 77 % 0.0 mm 0.0 W/m2 CLR
06:32 8.3 °C 4.6 °C 1020.5 hPa NNW 55.5 km/h 55.5 km/h 77 % 0.0 mm 0.0 W/m2 CLR
06:37 8.4 °C 4.6 °C 1020.5 hPa NW 50.0 km/h 50.0 km/h 77 % 0.0 mm 0.0 W/m2 CLR
06:42 8.4 °C 4.6 °C 1020.9 hPa NW 51.8 km/h 51.8 km/h 77 % 0.0 mm 0.0 W/m2 CLR
06:47 8.4 °C 4.4 °C 1020.5 hPa NW 44.4 km/h 44.4 km/h 76 % 0.0 mm 0.0 W/m2 CLR
06:52 8.4 °C 4.4 °C 1020.5 hPa NW 55.5 km/h 55.5 km/h 76 % 0.0 mm 0.0 W/m2 CLR
06:57 8.4 °C 4.4 °C 1020.5 hPa NW 37.0 km/h 37.0 km/h 76 % 0.0 mm 0.0 W/m2 CLR
07:03 8.4 °C 4.4 °C 1020.5 hPa NW 38.9 km/h 38.9 km/h 76 % 0.0 mm 0.0 W/m2 CLR
07:08 8.4 °C 4.4 °C 1020.5 hPa NW 41.8 km/h 41.8 km/h 76 % 0.0 mm 0.0 W/m2 CLR
07:13 8.4 °C 4.4 °C 1020.5 hPa NW 43.4 km/h 43.4 km/h 76 % 0.0 mm 0.0 W/m2 CLR
07:18 8.5 °C 4.5 °C 1020.5 hPa NW 51.5 km/h 51.5 km/h 76 % 0.0 mm 0.0 W/m2 CLR
07:23 8.5 °C 4.5 °C 1020.5 hPa NW 35.4 km/h 35.4 km/h 76 % 0.0 mm 0.0 W/m2 CLR
07:28 8.5 °C 4.5 °C 1020.5 hPa NW 48.1 km/h 48.1 km/h 76 % 0.0 mm 0.0 W/m2 CLR
07:33 8.5 °C 4.5 °C 1020.5 hPa NW 40.7 km/h 40.7 km/h 76 % 0.0 mm 0.0 W/m2 CLR
07:38 8.5 °C 4.7 °C 1020.9 hPa NW 44.4 km/h 44.4 km/h 77 % 0.0 mm 0.0 W/m2 CLR
07:43 8.5 °C 4.7 °C 1020.5 hPa NW 33.3 km/h 33.3 km/h 77 % 0.0 mm 0.0 W/m2 CLR
07:48 8.5 °C 4.7 °C 1020.5 hPa NW 43.4 km/h 43.4 km/h 77 % 0.0 mm 0.0 W/m2 CLR
07:53 8.4 °C 4.7 °C 1020.5 hPa NW 51.8 km/h 51.8 km/h 77 % 0.0 mm 0.0 W/m2 CLR
07:58 8.4 °C 4.6 °C 1020.5 hPa NW 37.0 km/h 37.0 km/h 77 % 0.0 mm 0.0 W/m2 CLR
08:03 8.4 °C 4.7 °C 1020.5 hPa NW 40.7 km/h 40.7 km/h 77 % 0.0 mm 0.0 W/m2 CLR
08:08 8.4 °C 4.8 °C 1020.5 hPa NW 42.6 km/h 42.6 km/h 78 % 0.0 mm 0.0 W/m2 CLR
08:13 8.4 °C 4.8 °C 1020.5 hPa NW 40.7 km/h 40.7 km/h 78 % 0.0 mm 0.0 W/m2 CLR
08:18 8.4 °C 4.8 °C 1020.5 hPa NW 46.3 km/h 46.3 km/h 78 % 0.0 mm 0.0 W/m2 CLR
08:23 8.4 °C 4.8 °C 1020.5 hPa NW 44.4 km/h 44.4 km/h 78 % 0.0 mm 0.0 W/m2 OVC
08:28 8.4 °C 4.8 °C 1020.2 hPa NW 48.1 km/h 48.1 km/h 78 % 0.0 mm 5.0 W/m2 BKN
08:33 8.4 °C 4.8 °C 1020.5 hPa NW 38.9 km/h 38.9 km/h 78 % 0.0 mm 7.0 W/m2 BKN
08:38 8.3 °C 4.9 °C 1020.2 hPa NW 33.3 km/h 33.3 km/h 79 % 0.0 mm 9.0 W/m2 BKN
08:43 8.4 °C 4.9 °C 1020.5 hPa NNW 37.0 km/h 37.0 km/h 79 % 0.0 mm 18.0 W/m2 BKN
08:48 8.4 °C 5.0 °C 1020.2 hPa NW 46.3 km/h 46.3 km/h 79 % 0.0 mm 12.0 W/m2 BKN
08:53 8.4 °C 5.0 °C 1020.5 hPa NW 44.4 km/h 44.4 km/h 79 % 0.0 mm 23.0 W/m2 BKN
08:58 8.5 °C 5.1 °C 1020.2 hPa NW 35.4 km/h 35.4 km/h 79 % 0.0 mm 23.0 W/m2 BKN
09:04 8.6 °C 5.0 °C 1020.2 hPa NW 46.7 km/h 46.7 km/h 78 % 0.0 mm 21.0 W/m2 BKN
09:09 8.6 °C 5.0 °C 1020.2 hPa NW 31.5 km/h 31.5 km/h 78 % 0.0 mm 23.0 W/m2 BKN
09:14 8.6 °C 5.2 °C 1020.2 hPa NW 37.0 km/h 37.0 km/h 79 % 0.0 mm 25.0 W/m2 BKN
09:19 8.7 °C 5.2 °C 1020.2 hPa NW 40.7 km/h 40.7 km/h 79 % 0.0 mm 23.0 W/m2 BKN
09:24 8.8 °C 5.2 °C 1020.2 hPa NW 53.7 km/h 53.7 km/h 78 % 0.0 mm 76.0 W/m2 BKN
09:29 8.9 °C 5.3 °C 1020.2 hPa NW 57.4 km/h 57.4 km/h 78 % 0.0 mm 40.0 W/m2 BKN
09:34 9.0 °C 5.4 °C 1020.2 hPa NW 55.5 km/h 55.5 km/h 78 % 0.0 mm 42.0 W/m2 BKN
09:39 9.0 °C 5.4 °C 1020.2 hPa NNW 38.9 km/h 38.9 km/h 78 % 0.0 mm 77.0 W/m2 BKN
09:44 9.1 °C 5.5 °C 1020.2 hPa NW 50.0 km/h 50.0 km/h 78 % 0.0 mm 134.0 W/m2 BKN
09:49 9.2 °C 5.6 °C 1020.2 hPa NW 55.5 km/h 55.5 km/h 78 % 0.0 mm 162.0 W/m2 BKN
09:54 9.3 °C 5.4 °C 1020.2 hPa NW 53.7 km/h 53.7 km/h 77 % 0.0 mm 142.0 W/m2 BKN
09:59 9.4 °C 5.6 °C 1020.2 hPa NW 42.6 km/h 42.6 km/h 77 % 0.0 mm 160.0 W/m2 SCT
10:04 9.5 °C 5.7 °C 1020.2 hPa NW 55.5 km/h 55.5 km/h 77 % 0.0 mm 160.0 W/m2 BKN
10:09 9.6 °C 5.8 °C 1020.2 hPa NW 42.6 km/h 42.6 km/h 77 % 0.0 mm 146.0 W/m2 BKN
10:14 9.7 °C 5.9 °C 1020.2 hPa NW 35.2 km/h 35.2 km/h 77 % 0.0 mm 229.0 W/m2 SCT
10:19 9.8 °C 6.0 °C 1019.9 hPa NW 44.4 km/h 44.4 km/h 77 % 0.0 mm 246.0 W/m2 SCT
10:24 9.9 °C 5.9 °C 1019.9 hPa NW 40.7 km/h 40.7 km/h 76 % 0.0 mm 262.0 W/m2 SCT
10:29 10.1 °C 5.8 °C 1019.9 hPa NW 44.4 km/h 44.4 km/h 75 % 0.0 mm 274.0 W/m2 SCT
10:34 10.2 °C 6.0 °C 1019.9 hPa NW 42.6 km/h 42.6 km/h 75 % 0.0 mm 297.0 W/m2 SCT
10:39 10.3 °C 6.1 °C 1020.2 hPa NW 32.2 km/h 32.2 km/h 75 % 0.0 mm 315.0 W/m2 FEW
10:44 10.4 °C 6.2 °C 1019.9 hPa NW 42.6 km/h 42.6 km/h 75 % 0.0 mm 334.0 W/m2 FEW
10:49 10.6 °C 6.3 °C 1019.9 hPa NW 35.4 km/h 35.4 km/h 75 % 0.0 mm 294.0 W/m2 FEW
10:54 10.6 °C 6.1 °C 1020.2 hPa NNW 42.6 km/h 42.6 km/h 74 % 0.0 mm 364.0 W/m2 FEW
10:59 10.6 °C 6.2 °C 1019.9 hPa NW 46.3 km/h 46.3 km/h 74 % 0.0 mm 424.0 W/m2 CLR
11:04 10.9 °C 6.4 °C 1019.9 hPa NW 38.9 km/h 38.9 km/h 74 % 0.0 mm 461.0 W/m2 CLR
11:09 10.8 °C 6.2 °C 1019.9 hPa NW 48.1 km/h 48.1 km/h 73 % 0.0 mm 364.0 W/m2 CLR
11:14 10.9 °C 6.2 °C 1019.9 hPa NW 51.8 km/h 51.8 km/h 73 % 0.0 mm 352.0 W/m2 CLR
11:19 11.1 °C 6.2 °C 1019.9 hPa NW 50.0 km/h 50.0 km/h 72 % 0.0 mm 301.0 W/m2 FEW
11:24 11.1 °C 6.3 °C 1019.9 hPa NW 43.4 km/h 43.4 km/h 72 % 0.0 mm 380.0 W/m2 FEW
11:29 11.2 °C 6.3 °C 1019.9 hPa NW 42.6 km/h 42.6 km/h 72 % 0.0 mm 390.0 W/m2 FEW
11:34 11.3 °C 6.3 °C 1019.5 hPa NW 46.3 km/h 46.3 km/h 71 % 0.0 mm 401.0 W/m2 FEW
11:39 11.4 °C 6.3 °C 1019.5 hPa NW 42.6 km/h 42.6 km/h 71 % 0.0 mm 392.0 W/m2 FEW
11:44 11.6 °C 6.3 °C 1019.5 hPa NW 35.2 km/h 35.2 km/h 70 % 0.0 mm 427.0 W/m2 CLR
11:45 11.7 °C 6.6 °C 1019.5 hPa NW 41.8 km/h 41.8 km/h 71 % 0.0 mm 427.0 W/m2 CLR
11:50 11.7 °C 6.2 °C 1019.5 hPa NW 42.6 km/h 42.6 km/h 69 % 0.0 mm 427.0 W/m2 CLR
11:55 11.8 °C 6.3 °C 1019.2 hPa NW 44.4 km/h 44.4 km/h 69 % 0.0 mm 427.0 W/m2 CLR
12:00 11.8 °C 6.3 °C 1019.2 hPa NW 42.6 km/h 42.6 km/h 69 % 0.0 mm 427.0 W/m2 CLR
12:05 11.8 °C 6.1 °C 1019.2 hPa NNW 48.1 km/h 48.1 km/h 68 % 0.0 mm 420.0 W/m2 CLR
12:10 11.9 °C 6.2 °C 1019.2 hPa NNW 48.3 km/h 48.3 km/h 68 % 0.0 mm 436.0 W/m2 FEW
12:15 11.9 °C 6.2 °C 1019.2 hPa NW 42.6 km/h 42.6 km/h 68 % 0.0 mm 439.0 W/m2 FEW
12:20 12.1 °C 6.2 °C 1019.2 hPa NW 50.0 km/h 50.0 km/h 67 % 0.0 mm 461.0 W/m2 CLR
12:25 12.3 °C 6.3 °C 1018.8 hPa NW 35.2 km/h 35.2 km/h 67 % 0.0 mm 450.0 W/m2 CLR
12:30 12.3 °C 6.2 °C 1018.8 hPa NW 46.3 km/h 46.3 km/h 66 % 0.0 mm 448.0 W/m2 CLR
12:35 12.4 °C 6.1 °C 1018.8 hPa NW 55.5 km/h 55.5 km/h 65 % 0.0 mm 452.0 W/m2 CLR
12:40 12.6 °C 6.2 °C 1018.5 hPa NW 57.4 km/h 57.4 km/h 65 % 0.0 mm 454.0 W/m2 CLR
12:45 12.6 °C 5.9 °C 1018.5 hPa NW 48.1 km/h 48.1 km/h 64 % 0.0 mm 455.0 W/m2 CLR
12:50 12.5 °C 5.9 °C 1018.5 hPa NW 55.5 km/h 55.5 km/h 64 % 0.0 mm 461.0 W/m2 CLR
12:55 12.7 °C 5.8 °C 1018.5 hPa NW 51.8 km/h 51.8 km/h 63 % 0.0 mm 462.0 W/m2 CLR
13:00 12.7 °C 5.8 °C 1018.2 hPa NW 42.6 km/h 42.6 km/h 63 % 0.0 mm 462.0 W/m2 CLR
13:05 12.9 °C 6.1 °C 1018.2 hPa NW 46.3 km/h 46.3 km/h 63 % 0.0 mm 462.0 W/m2 CLR
13:10 13.1 °C 6.2 °C 1017.8 hPa NW 45.1 km/h 45.1 km/h 63 % 0.0 mm 462.0 W/m2 CLR
13:15 13.1 °C 6.0 °C 1017.8 hPa NW 57.4 km/h 57.4 km/h 62 % 0.0 mm 464.0 W/m2 CLR
13:20 13.1 °C 5.9 °C 1017.8 hPa NW 46.3 km/h 46.3 km/h 62 % 0.0 mm 464.0 W/m2 CLR
13:25 13.2 °C 6.1 °C 1017.5 hPa NW 42.6 km/h 42.6 km/h 62 % 0.0 mm 487.0 W/m2 CLR
13:30 13.4 °C 6.0 °C 1017.5 hPa NW 46.3 km/h 46.3 km/h 61 % 0.0 mm 476.0 W/m2 CLR
13:36 13.3 °C 5.7 °C 1017.5 hPa NW 55.5 km/h 55.5 km/h 60 % 0.0 mm 501.0 W/m2 CLR
13:41 13.1 °C 5.8 °C 1017.5 hPa NW 55.5 km/h 55.5 km/h 61 % 0.0 mm 492.0 W/m2 CLR
13:46 12.8 °C 5.7 °C 1017.2 hPa NW 42.6 km/h 42.6 km/h 62 % 0.0 mm 84.0 W/m2 FEW
13:51 12.9 °C 6.2 °C 1017.2 hPa NW 46.7 km/h 46.7 km/h 64 % 0.0 mm 519.0 W/m2 SCT
13:56 13.2 °C 6.5 °C 1017.2 hPa NW 46.3 km/h 46.3 km/h 64 % 0.0 mm 531.0 W/m2 SCT
14:01 13.1 °C 6.2 °C 1017.2 hPa NW 57.4 km/h 57.4 km/h 63 % 0.0 mm 127.0 W/m2 CLR
14:06 12.6 °C 5.9 °C 1017.2 hPa NW 55.5 km/h 55.5 km/h 64 % 0.0 mm 76.0 W/m2 BKN
14:11 12.5 °C 6.1 °C 1017.2 hPa NW 53.7 km/h 53.7 km/h 65 % 0.0 mm 86.0 W/m2 BKN
14:16 12.8 °C 6.2 °C 1017.2 hPa NW 57.4 km/h 57.4 km/h 64 % 0.0 mm 475.0 W/m2 BKN
14:21 13.2 °C 6.5 °C 1016.8 hPa NW 38.9 km/h 38.9 km/h 64 % 0.0 mm 527.0 W/m2 CLR
14:26 13.1 °C 6.2 °C 1016.8 hPa NW 50.0 km/h 50.5 km/h 63 % 0.0 mm 77.0 W/m2 CLR
14:31 12.5 °C 6.1 °C 1016.8 hPa NW 48.1 km/h 48.1 km/h 65 % 0.0 mm 79.0 W/m2 BKN
14:36 12.3 °C 5.9 °C 1016.8 hPa NW 57.4 km/h 57.4 km/h 65 % 0.0 mm 83.0 W/m2 BKN
14:41 12.1 °C 5.9 °C 1017.2 hPa NW 53.7 km/h 53.7 km/h 66 % 0.0 mm 79.0 W/m2 BKN
14:46 12.1 °C 5.9 °C 1017.2 hPa NW 64.8 km/h 64.8 km/h 66 % 0.0 mm 183.0 W/m2 BKN
14:51 12.1 °C 5.9 °C 1016.8 hPa NW 55.5 km/h 55.5 km/h 66 % 0.0 mm 79.0 W/m2 BKN
14:56 12.3 °C 5.9 °C 1016.8 hPa NW 66.6 km/h 66.6 km/h 65 % 0.0 mm 392.0 W/m2 BKN
15:01 12.3 °C 5.9 °C 1016.8 hPa NW 55.5 km/h 55.5 km/h 65 % 0.0 mm 77.0 W/m2 SCT
15:06 12.1 °C 5.9 °C 1016.8 hPa NW 46.7 km/h 46.7 km/h 66 % 0.0 mm 69.0 W/m2 SCT
15:11 12.2 °C 5.8 °C 1016.5 hPa NW 35.2 km/h 35.2 km/h 65 % 0.0 mm 79.0 W/m2 BKN
15:16 12.4 °C 6.1 °C 1016.5 hPa NW 51.8 km/h 51.8 km/h 65 % 0.0 mm 360.0 W/m2 SCT
15:21 12.6 °C 6.0 °C 1016.8 hPa NW 49.9 km/h 49.9 km/h 64 % 0.0 mm 338.0 W/m2 CLR
15:26 12.7 °C 5.6 °C 1016.5 hPa NW 57.4 km/h 57.4 km/h 62 % 0.0 mm 327.0 W/m2 CLR
15:31 12.9 °C 5.8 °C 1016.5 hPa NW 56.3 km/h 56.3 km/h 62 % 0.0 mm 320.0 W/m2 CLR
15:36 12.8 °C 5.7 °C 1016.8 hPa NW 53.7 km/h 53.7 km/h 62 % 0.0 mm 309.0 W/m2 CLR
15:41 12.6 °C 5.5 °C 1016.5 hPa NW 55.5 km/h 55.5 km/h 62 % 0.0 mm 301.0 W/m2 CLR
15:46 12.8 °C 5.4 °C 1016.8 hPa NW 57.4 km/h 57.4 km/h 61 % 0.0 mm 287.0 W/m2 CLR
15:51 12.6 °C 5.3 °C 1016.8 hPa NW 66.6 km/h 66.6 km/h 61 % 0.0 mm 276.0 W/m2 CLR
15:56 12.6 °C 5.4 °C 1016.5 hPa NW 51.8 km/h 51.8 km/h 62 % 0.0 mm 265.0 W/m2 CLR
16:01 12.6 °C 5.3 °C 1016.8 hPa NNW 68.5 km/h 68.5 km/h 61 % 0.0 mm 250.0 W/m2 CLR
16:06 12.5 °C 5.4 °C 1016.8 hPa NW 46.3 km/h 46.3 km/h 62 % 0.0 mm 236.0 W/m2 CLR
16:11 12.6 °C 5.4 °C 1016.5 hPa NNW 61.1 km/h 61.1 km/h 62 % 0.0 mm 221.0 W/m2 CLR
16:16 12.6 °C 5.7 °C 1016.8 hPa NNW 42.6 km/h 42.6 km/h 63 % 0.0 mm 207.0 W/m2 CLR
16:21 12.5 °C 5.4 °C 1016.8 hPa NNW 64.8 km/h 64.8 km/h 62 % 0.0 mm 195.0 W/m2 CLR
16:26 12.4 °C 5.6 °C 1016.8 hPa NNW 54.7 km/h 54.7 km/h 63 % 0.0 mm 178.0 W/m2 CLR
16:31 12.3 °C 5.5 °C 1016.5 hPa NW 55.5 km/h 55.5 km/h 63 % 0.0 mm 163.0 W/m2 CLR
16:36 12.2 °C 5.4 °C 1016.5 hPa NW 59.2 km/h 59.2 km/h 63 % 0.0 mm 149.0 W/m2 CLR
16:41 12.1 °C 5.5 °C 1016.5 hPa NW 66.6 km/h 66.6 km/h 64 % 0.0 mm 135.0 W/m2 CLR
16:46 12.1 °C 5.7 °C 1016.5 hPa NW 59.2 km/h 59.2 km/h 65 % 0.0 mm 121.0 W/m2 CLR
16:51 12.0 °C 5.6 °C 1016.5 hPa NW 53.7 km/h 53.7 km/h 65 % 0.0 mm 105.0 W/m2 CLR
16:56 11.9 °C 5.5 °C 1016.5 hPa NW 59.2 km/h 59.2 km/h 65 % 0.0 mm 93.0 W/m2 CLR
17:02 11.8 °C 5.4 °C 1016.8 hPa NW 57.4 km/h 57.4 km/h 65 % 0.0 mm 74.0 W/m2 CLR
17:07 11.7 °C 5.3 °C 1016.5 hPa NW 51.8 km/h 51.8 km/h 65 % 0.0 mm 53.0 W/m2 CLR
17:08 11.7 °C 5.3 °C 1016.8 hPa NW 51.8 km/h 51.8 km/h 65 % 0.0 mm 46.0 W/m2 CLR
17:14 11.7 °C 5.3 °C 1016.5 hPa NW 59.2 km/h 59.2 km/h 65 % 0.0 mm 40.0 W/m2
17:19 11.6 °C 5.4 °C 1016.5 hPa NW 51.8 km/h 51.8 km/h 66 % 0.0 mm 32.0 W/m2 OVC
17:24 11.4 °C 5.3 °C 1016.5 hPa NW 55.5 km/h 55.5 km/h 66 % 0.0 mm 26.0 W/m2 OVC
17:31 11.3 °C 5.2 °C 1016.5 hPa NW 62.9 km/h 62.9 km/h 66 % 0.0 mm 18.0 W/m2 OVC
17:33 11.3 °C 5.2 °C 1016.5 hPa NW 44.4 km/h 44.4 km/h 66 % 0.0 mm 14.0 W/m2
17:39 11.1 °C 5.2 °C 1016.5 hPa NW 50.0 km/h 50.0 km/h 67 % 0.0 mm 11.0 W/m2 OVC
17:44 11.1 °C 5.2 °C 1016.5 hPa NW 44.4 km/h 44.4 km/h 67 % 0.0 mm 9.0 W/m2
17:48 10.9 °C 5.3 °C 1016.5 hPa NW 46.3 km/h 46.3 km/h 68 % 0.0 mm 9.0 W/m2 OVC
17:49 10.9 °C 5.2 °C 1016.5 hPa NW 48.1 km/h 48.1 km/h 68 % 0.0 mm 7.0 W/m2 OVC
17:54 10.8 °C 5.2 °C 1016.8 hPa NW 68.5 km/h 68.5 km/h 68 % 0.0 mm 5.0 W/m2
17:55 10.8 °C 5.2 °C 1016.8 hPa NW 59.2 km/h 59.2 km/h 68 % 0.0 mm 5.0 W/m2
17:59 10.8 °C 5.2 °C 1016.5 hPa NW 48.1 km/h 48.1 km/h 68 % 0.0 mm 0.0 W/m2 CLR
18:12 10.6 °C 4.9 °C 1016.5 hPa NW 62.9 km/h 62.9 km/h 68 % 0.0 mm 0.0 W/m2 CLR
18:13 10.6 °C 4.9 °C 1016.5 hPa NW 62.9 km/h 62.9 km/h 68 % 0.0 mm 0.0 W/m2 CLR
18:16 10.5 °C 4.8 °C 1016.5 hPa NW 40.7 km/h 40.7 km/h 68 % 0.0 mm 0.0 W/m2 CLR
18:23 10.5 °C 4.8 °C 1016.8 hPa NNW 57.4 km/h 57.4 km/h 68 % 0.0 mm 0.0 W/m2 CLR
18:29 10.4 °C 4.8 °C 1016.8 hPa NNW 50.0 km/h 50.0 km/h 68 % 0.0 mm 0.0 W/m2 CLR
18:32 10.4 °C 4.7 °C 1016.8 hPa NW 55.5 km/h 55.5 km/h 68 % 0.0 mm 0.0 W/m2
18:33 10.4 °C 4.7 °C 1016.8 hPa NW 55.5 km/h 55.5 km/h 68 % 0.0 mm 0.0 W/m2
18:40 10.3 °C 4.7 °C 1016.8 hPa NNW 48.3 km/h 48.3 km/h 68 % 0.0 mm 0.0 W/m2
18:41 10.3 °C 4.7 °C 1016.8 hPa NNW 55.5 km/h 55.5 km/h 68 % 0.0 mm 0.0 W/m2
18:45 10.2 °C 4.8 °C 1016.8 hPa NNW 46.3 km/h 46.3 km/h 69 % 0.0 mm 0.0 W/m2 CLR
18:52 10.1 °C 4.7 °C 1016.8 hPa NW 57.4 km/h 57.4 km/h 69 % 0.0 mm 0.0 W/m2 CLR
18:54 10.1 °C 4.7 °C 1016.8 hPa NW 48.1 km/h 48.1 km/h 69 % 0.0 mm 0.0 W/m2 CLR
18:56 10.1 °C 4.7 °C 1016.8 hPa NW 55.5 km/h 55.5 km/h 69 % 0.0 mm 0.0 W/m2 CLR
18:57 10.1 °C 4.7 °C 1016.8 hPa NW 46.3 km/h 46.3 km/h 69 % 0.0 mm 0.0 W/m2 CLR
19:01 10.1 °C 4.6 °C 1016.8 hPa NW 42.6 km/h 42.6 km/h 69 % 0.0 mm 0.0 W/m2 CLR
19:08 9.9 °C 4.5 °C 1016.8 hPa NW 51.8 km/h 51.8 km/h 69 % 0.0 mm 0.0 W/m2 CLR
19:16 9.8 °C 4.6 °C 1017.2 hPa NW 33.3 km/h 33.3 km/h 70 % 0.0 mm 0.0 W/m2 CLR
19:25 9.7 °C 4.9 °C 1017.2 hPa NW 46.3 km/h 46.3 km/h 72 % 0.0 mm 0.0 W/m2 CLR
19:28 9.7 °C 4.9 °C 1016.8 hPa NNW 55.5 km/h 55.5 km/h 72 % 0.0 mm 0.0 W/m2
19:29 9.7 °C 4.9 °C 1017.2 hPa NW 55.5 km/h 55.5 km/h 72 % 0.0 mm 0.0 W/m2
19:31 9.7 °C 4.9 °C 1016.8 hPa NNW 42.6 km/h 42.6 km/h 72 % 0.0 mm 0.0 W/m2
19:46 9.6 °C 4.8 °C 1016.8 hPa NW 37.0 km/h 37.0 km/h 72 % 0.0 mm 0.0 W/m2 CLR
19:47 9.6 °C 4.8 °C 1017.2 hPa NW 54.7 km/h 54.7 km/h 72 % 0.0 mm 0.0 W/m2 CLR
19:53 9.6 °C 4.8 °C 1017.2 hPa NW 50.0 km/h 50.0 km/h 72 % 0.0 mm 0.0 W/m2 CLR
19:58 9.5 °C 4.9 °C 1017.2 hPa NW 53.7 km/h 53.7 km/h 73 % 0.0 mm 0.0 W/m2 CLR
19:59 9.5 °C 4.9 °C 1017.2 hPa NNW 48.1 km/h 48.1 km/h 73 % 0.0 mm 0.0 W/m2 CLR
20:07 9.4 °C 5.1 °C 1017.2 hPa NW 51.8 km/h 51.8 km/h 74 % 0.0 mm 0.0 W/m2 CLR
20:09 9.4 °C 5.0 °C 1017.2 hPa NW 51.8 km/h 51.8 km/h 74 % 0.0 mm 0.0 W/m2 CLR
20:11 9.4 °C 5.0 °C 1017.2 hPa NW 55.5 km/h 55.5 km/h 74 % 0.0 mm 0.0 W/m2 CLR
20:27 9.3 °C 4.9 °C 1017.2 hPa NNW 51.8 km/h 51.8 km/h 74 % 0.0 mm 0.0 W/m2 CLR
20:32 9.3 °C 4.9 °C 1017.2 hPa NW 40.7 km/h 40.7 km/h 74 % 0.0 mm 0.0 W/m2 CLR
20:40 9.2 °C 5.0 °C 1016.8 hPa NNW 42.6 km/h 42.6 km/h 75 % 0.0 mm 0.0 W/m2 CLR
21:05 9.1 °C 4.7 °C 1017.2 hPa NNW 42.6 km/h 42.6 km/h 74 % 0.0 mm 0.0 W/m2 CLR
21:08 9.1 °C 4.7 °C 1017.2 hPa NNW 48.1 km/h 48.1 km/h 74 % 0.0 mm 0.0 W/m2 CLR
21:11 9.0 °C 4.6 °C 1016.8 hPa NNW 54.7 km/h 54.7 km/h 74 % 0.0 mm 0.0 W/m2 CLR
21:15 9.0 °C 4.6 °C 1016.8 hPa NNW 48.1 km/h 48.1 km/h 74 % 0.0 mm 0.0 W/m2 CLR
21:22 8.9 °C 4.6 °C 1016.8 hPa NNW 42.6 km/h 42.6 km/h 74 % 0.0 mm 0.0 W/m2 CLR
21:24 8.9 °C 4.5 °C 1016.8 hPa NNW 55.5 km/h 55.5 km/h 74 % 0.0 mm 0.0 W/m2 CLR
21:26 8.9 °C 4.5 °C 1016.8 hPa NNW 42.6 km/h 42.6 km/h 74 % 0.0 mm 0.0 W/m2 CLR
21:27 8.9 °C 4.5 °C 1017.2 hPa NNW 48.1 km/h 48.1 km/h 74 % 0.0 mm 0.0 W/m2 CLR
21:32 8.8 °C 4.4 °C 1016.8 hPa NNW 51.8 km/h 51.8 km/h 74 % 0.0 mm 0.0 W/m2 CLR
21:33 8.8 °C 4.4 °C 1016.8 hPa NNW 51.8 km/h 51.8 km/h 74 % 0.0 mm 0.0 W/m2 CLR
21:48 8.7 °C 4.2 °C 1017.2 hPa NNW 51.8 km/h 51.8 km/h 73 % 0.0 mm 0.0 W/m2 CLR
21:54 8.7 °C 4.2 °C 1017.2 hPa NNW 42.6 km/h 42.6 km/h 73 % 0.0 mm 0.0 W/m2 CLR
21:56 8.7 °C 4.2 °C 1017.2 hPa NNW 42.6 km/h 42.6 km/h 73 % 0.0 mm 0.0 W/m2 CLR
22:03 8.7 °C 4.1 °C 1017.2 hPa NNW 33.3 km/h 33.3 km/h 73 % 0.0 mm 0.0 W/m2 CLR
22:05 8.7 °C 4.1 °C 1017.2 hPa NNW 38.6 km/h 38.6 km/h 73 % 0.0 mm 0.0 W/m2 CLR
22:11 8.6 °C 4.1 °C 1017.2 hPa NNW 31.5 km/h 32.8 km/h 73 % 0.0 mm 0.0 W/m2 CLR
22:16 8.6 °C 4.1 °C 1017.2 hPa NNW 46.3 km/h 46.3 km/h 73 % 0.0 mm 0.0 W/m2 CLR
22:18 8.7 °C 4.2 °C 1017.2 hPa NW 40.7 km/h 40.7 km/h 73 % 0.0 mm 0.0 W/m2 CLR
22:20 8.7 °C 4.2 °C 1017.2 hPa NW 42.6 km/h 42.6 km/h 73 % 0.0 mm 0.0 W/m2 CLR
22:28 8.6 °C 4.1 °C 1016.8 hPa NNW 46.3 km/h 46.3 km/h 73 % 0.0 mm 0.0 W/m2 CLR
22:29 8.6 °C 4.2 °C 1016.8 hPa NW 48.1 km/h 48.1 km/h 74 % 0.0 mm 0.0 W/m2 CLR
22:30 8.6 °C 4.2 °C 1016.8 hPa NW 50.0 km/h 50.0 km/h 74 % 0.0 mm 0.0 W/m2 CLR
22:32 8.6 °C 4.2 °C 1016.8 hPa NW 46.7 km/h 46.7 km/h 74 % 0.0 mm 0.0 W/m2 CLR
22:35 8.6 °C 4.2 °C 1016.8 hPa NW 41.8 km/h 41.8 km/h 74 % 0.0 mm 0.0 W/m2 CLR
22:37 8.5 °C 4.1 °C 1016.8 hPa NW 48.1 km/h 48.1 km/h 74 % 0.0 mm 0.0 W/m2 CLR
22:40 8.5 °C 4.3 °C 1016.8 hPa NNW 42.6 km/h 42.6 km/h 75 % 0.0 mm 0.0 W/m2 CLR
22:41 8.5 °C 4.3 °C 1016.8 hPa NNW 42.6 km/h 42.6 km/h 75 % 0.0 mm 0.0 W/m2 CLR
22:46 8.4 °C 4.3 °C 1016.8 hPa NW 48.3 km/h 48.3 km/h 75 % 0.0 mm 0.0 W/m2 CLR
22:51 8.5 °C 4.5 °C 1017.2 hPa NNW 44.4 km/h 44.4 km/h 76 % 0.0 mm 0.0 W/m2 CLR
22:56 8.4 °C 4.4 °C 1017.2 hPa NNW 43.4 km/h 43.4 km/h 76 % 0.0 mm 0.0 W/m2 CLR
23:01 8.4 °C 4.4 °C 1017.2 hPa NW 38.9 km/h 38.9 km/h 76 % 0.0 mm 0.0 W/m2 CLR
23:06 8.4 °C 4.7 °C 1017.2 hPa NNW 55.5 km/h 55.5 km/h 77 % 0.0 mm 0.0 W/m2 CLR
23:11 8.4 °C 4.6 °C 1017.2 hPa NW 42.6 km/h 42.6 km/h 77 % 0.0 mm 0.0 W/m2 CLR
23:16 8.4 °C 4.6 °C 1017.2 hPa NW 42.6 km/h 42.6 km/h 77 % 0.0 mm 0.0 W/m2 CLR
23:21 8.3 °C 4.7 °C 1017.2 hPa NW 40.7 km/h 40.7 km/h 78 % 0.0 mm 0.0 W/m2 CLR
23:26 8.3 °C 4.7 °C 1017.2 hPa NNW 44.4 km/h 44.4 km/h 78 % 0.0 mm 0.0 W/m2 CLR
23:31 8.3 °C 4.7 °C 1017.2 hPa NNW 46.3 km/h 46.3 km/h 78 % 0.0 mm 0.0 W/m2 CLR
23:36 8.3 °C 4.8 °C 1017.2 hPa NW 42.6 km/h 42.6 km/h 79 % 0.0 mm 0.0 W/m2 CLR
23:41 8.2 °C 4.8 °C 1016.8 hPa NW 37.0 km/h 37.0 km/h 79 % 0.0 mm 0.0 W/m2 CLR
23:46 8.3 °C 4.8 °C 1016.8 hPa NW 38.9 km/h 38.9 km/h 79 % 0.0 mm 0.0 W/m2 CLR
23:51 8.2 °C 4.7 °C 1016.8 hPa NW 44.4 km/h 44.4 km/h 79 % 0.0 mm 0.0 W/m2 CLR
23:56 8.2 °C 4.8 °C 1016.8 hPa NW 35.2 km/h 35.2 km/h 79 % 0.0 mm 0.0 W/m2 CLR
Lo Temps de Massalio
Compliments of Weather Underground - 1.25 mb